createdAt,value
2018-01-11T10:41:24.789Z,19.10
2018-01-11T10:43:53.284Z,19.80
2018-01-11T10:46:21.780Z,17.70
2018-01-11T10:48:52.429Z,19.37
2018-01-11T10:51:20.944Z,19.80
2018-01-11T10:53:49.285Z,20.47
2018-01-11T10:56:19.795Z,19.90
2018-01-11T10:58:48.789Z,19.97
2018-01-11T11:01:22.636Z,20.40
2018-01-11T11:03:51.089Z,20.00
2018-01-11T11:06:19.416Z,19.40
2018-01-11T11:08:47.759Z,20.73
2018-01-11T11:11:16.332Z,21.83
2018-01-11T11:13:44.960Z,23.77
2018-01-11T11:16:13.308Z,23.10
2018-01-11T11:18:41.732Z,22.10
2018-01-11T11:26:16.235Z,25.07
2018-01-11T11:33:49.671Z,22.30
2018-01-11T11:36:22.123Z,20.20
2018-01-11T11:38:53.076Z,24.03
2018-01-11T11:41:21.419Z,22.50
2018-01-11T11:43:49.739Z,22.30
2018-01-11T11:46:18.077Z,22.47
2018-01-11T11:48:46.471Z,25.30
2018-01-11T11:51:15.313Z,27.10
2018-01-11T11:53:46.880Z,23.83
2018-01-11T11:56:15.281Z,21.17
2018-01-11T11:58:44.436Z,22.83
2018-01-11T12:01:12.830Z,24.80
2018-01-11T12:03:41.196Z,25.47
2018-01-11T12:11:14.702Z,25.07
2018-01-11T12:13:43.036Z,24.27
2018-01-11T12:16:11.505Z,25.63
2018-01-11T12:18:40.080Z,26.03
2018-01-11T12:21:09.594Z,23.50
2018-01-11T12:28:45.375Z,23.50
2018-01-11T12:31:14.627Z,22.80
2018-01-11T12:39:00.957Z,24.20
2018-01-11T12:41:29.354Z,25.30
2018-01-11T12:43:58.670Z,22.07
2018-01-11T12:46:30.557Z,23.00
2018-01-11T12:48:59.320Z,22.60
2018-01-11T12:51:27.747Z,20.67
2018-01-11T12:53:56.104Z,24.93
2018-01-11T12:56:24.483Z,21.70
2018-01-11T12:58:53.436Z,22.33
2018-01-11T13:01:21.912Z,18.57
2018-01-11T13:03:52.170Z,20.07
2018-01-11T13:06:20.485Z,23.50
2018-01-11T13:08:48.990Z,21.77
2018-01-11T13:11:17.311Z,23.33
2018-01-11T13:13:45.729Z,23.20
2018-01-11T13:16:14.068Z,23.63
2018-01-11T13:18:43.851Z,23.40
2018-01-11T13:21:12.213Z,24.13
2018-01-11T13:23:43.185Z,22.17
2018-01-11T13:28:45.616Z,22.63
2018-01-11T13:31:14.416Z,20.90
2018-01-11T13:33:45.239Z,21.70
2018-01-11T13:36:14.119Z,20.97
2018-01-11T13:38:45.523Z,19.20
2018-01-11T13:41:15.544Z,19.77
2018-01-11T13:43:44.217Z,16.83
2018-01-11T13:46:13.376Z,18.73
2018-01-11T13:48:41.937Z,18.50
2018-01-11T13:51:10.567Z,19.20
2018-01-11T13:53:44.785Z,19.30
2018-01-11T13:56:14.168Z,14.30
2018-01-11T14:01:17.151Z,17.40
2018-01-11T14:03:45.531Z,18.10
2018-01-11T14:06:13.971Z,18.03
2018-01-11T14:08:42.352Z,16.00
2018-01-11T14:11:11.188Z,15.50
2018-01-11T14:13:39.560Z,16.67
2018-01-11T14:16:08.420Z,15.37
2018-01-11T14:18:37.499Z,14.77
2018-01-11T14:21:06.042Z,13.37
2018-01-11T14:23:35.938Z,14.57
2018-01-11T14:26:04.690Z,15.00
2018-01-11T14:28:33.003Z,13.93
2018-01-11T14:31:01.438Z,13.07
2018-01-11T14:33:29.763Z,13.17
2018-01-11T14:35:58.701Z,13.90
2018-01-11T14:38:27.600Z,12.27
2018-01-11T14:40:55.947Z,14.77
2018-01-11T14:43:28.091Z,12.27
2018-01-11T14:45:57.629Z,13.40
2018-01-11T14:48:25.997Z,14.07
2018-01-11T14:50:54.373Z,13.70
2018-01-11T14:53:22.721Z,14.47
2018-01-11T14:55:51.027Z,13.73
2018-01-11T14:58:20.442Z,13.27
2018-01-11T15:00:54.162Z,13.33
2018-01-11T15:03:22.500Z,13.67
2018-01-11T15:05:51.829Z,13.63
2018-01-11T15:08:20.159Z,14.77
2018-01-11T15:10:48.546Z,13.80
2018-01-11T15:13:18.022Z,14.13
2018-01-11T15:15:46.406Z,14.20
2018-01-11T15:18:15.750Z,14.00
2018-01-11T15:20:44.161Z,14.20
2018-01-11T15:23:12.531Z,13.80
2018-01-11T15:25:41.571Z,15.47
2018-01-11T15:28:09.909Z,14.77
2018-01-11T15:30:38.352Z,13.87
2018-01-11T15:33:08.241Z,14.60
2018-01-11T15:35:36.548Z,14.60
2018-01-11T15:38:04.928Z,13.60
2018-01-11T15:40:34.552Z,14.07
2018-01-11T15:43:03.903Z,14.30
2018-01-11T15:45:32.920Z,14.10
2018-01-11T15:48:02.940Z,16.00
2018-01-11T15:50:31.405Z,15.33
2018-01-11T15:52:59.764Z,13.63
2018-01-11T15:55:28.255Z,15.13
2018-01-11T15:57:57.152Z,17.47
2018-01-11T16:02:58.023Z,16.57
2018-01-11T16:07:58.948Z,18.20
2018-01-11T16:10:27.309Z,17.60
2018-01-11T16:12:55.634Z,20.10
2018-01-11T16:15:24.158Z,19.27
2018-01-11T16:23:00.987Z,22.13
2018-01-11T16:25:29.378Z,22.73
2018-01-11T16:27:57.873Z,22.13
2018-01-11T16:30:26.313Z,25.00
2018-01-11T16:32:54.639Z,25.50
2018-01-11T16:35:23.021Z,26.40
2018-01-11T16:40:25.900Z,28.03
2018-01-11T16:42:54.279Z,28.53
2018-01-11T16:47:56.109Z,27.13
2018-01-11T16:50:24.448Z,27.20
2018-01-11T16:52:55.771Z,28.40
2018-01-11T16:55:24.255Z,26.97
2018-01-11T16:57:52.651Z,29.00
2018-01-11T17:00:21.020Z,27.40
2018-01-11T17:05:22.167Z,28.40
2018-01-11T17:07:50.596Z,28.73
2018-01-11T17:12:55.852Z,28.87
2018-01-11T17:15:24.283Z,29.53
2018-01-11T17:17:52.686Z,28.20
2018-01-11T17:20:21.040Z,26.43
2018-01-11T17:22:49.409Z,27.30
2018-01-11T17:25:17.797Z,25.53
2018-01-11T17:27:46.165Z,27.20
2018-01-11T17:32:51.907Z,30.70
2018-01-11T17:37:54.140Z,31.27
2018-01-11T17:40:28.492Z,32.70
2018-01-11T17:42:56.852Z,28.60
2018-01-11T17:45:25.298Z,28.27
2018-01-11T17:47:53.654Z,29.00
2018-01-11T17:52:54.422Z,26.40
2018-01-11T17:55:23.027Z,26.37
2018-01-11T17:57:51.414Z,26.37
2018-01-11T18:00:20.001Z,29.90
2018-01-11T18:02:48.706Z,36.30
2018-01-11T18:05:17.334Z,34.63
2018-01-11T18:10:18.297Z,36.37
2018-01-11T18:12:46.669Z,32.40
2018-01-11T18:17:47.566Z,33.83
2018-01-11T18:22:53.043Z,33.73
2018-01-11T18:25:21.389Z,33.13
2018-01-11T18:27:49.829Z,33.43
2018-01-11T18:30:18.153Z,34.43
2018-01-11T18:32:50.879Z,35.43
2018-01-11T18:37:51.807Z,32.80
2018-01-11T18:40:20.949Z,33.90
2018-01-11T18:42:49.303Z,32.37
2018-01-11T18:47:50.194Z,36.03
2018-01-11T18:50:18.597Z,35.30
2018-01-11T18:52:47.319Z,34.00
2018-01-11T18:55:15.743Z,35.40
2018-01-11T18:57:44.147Z,38.43
2018-01-11T19:02:49.517Z,36.87
2018-01-11T19:05:18.090Z,38.00
2018-01-11T19:07:50.014Z,38.53
2018-01-11T19:10:18.635Z,39.43
2018-01-11T19:12:47.274Z,41.00
2018-01-11T19:15:15.871Z,40.10
2018-01-11T19:17:45.519Z,38.53
2018-01-11T19:20:14.149Z,37.73
2018-01-11T19:22:42.538Z,38.90
2018-01-11T19:25:11.025Z,40.70
2018-01-11T19:27:40.136Z,38.07
2018-01-11T19:30:08.544Z,31.90
2018-01-11T19:32:36.905Z,36.20
2018-01-11T19:35:05.280Z,36.50
2018-01-11T19:37:33.674Z,40.53
2018-01-11T19:42:34.841Z,39.30
2018-01-11T19:45:09.793Z,37.07
2018-01-11T19:47:38.154Z,35.57
2018-01-11T19:50:06.598Z,37.10
2018-01-11T19:52:34.929Z,37.33
2018-01-11T19:55:03.395Z,36.07
2018-01-11T19:57:31.748Z,37.40
2018-01-11T20:00:01.197Z,31.37
2018-01-11T20:02:30.271Z,37.60
2018-01-11T20:07:31.401Z,39.10
2018-01-11T20:09:59.765Z,36.80
2018-01-11T20:12:28.348Z,38.53
2018-01-11T20:14:56.770Z,35.20
2018-01-11T20:17:25.118Z,40.93
2018-01-11T20:19:53.487Z,39.97
2018-01-11T20:22:22.109Z,38.67
2018-01-11T20:24:50.539Z,35.43
2018-01-11T20:27:18.862Z,38.53
2018-01-11T20:29:47.209Z,36.67
2018-01-11T20:32:15.587Z,36.23
2018-01-11T20:34:43.952Z,34.80
2018-01-11T20:37:12.441Z,35.80
2018-01-11T20:39:40.788Z,37.60
2018-01-11T20:42:09.766Z,27.50
2018-01-11T20:44:38.145Z,37.97
2018-01-11T20:47:06.542Z,35.40
2018-01-11T20:49:35.059Z,34.53
2018-01-11T20:52:03.560Z,28.90
2018-01-11T20:54:31.939Z,34.33
2018-01-11T20:57:00.367Z,33.10
2018-01-11T21:02:01.390Z,33.20
2018-01-11T21:04:29.747Z,35.80
2018-01-11T21:06:58.140Z,31.93
2018-01-11T21:09:26.458Z,31.80
2018-01-11T21:11:54.908Z,33.50
2018-01-11T21:14:23.375Z,34.57
2018-01-11T21:16:51.712Z,31.63
2018-01-11T21:19:20.081Z,30.40
2018-01-11T21:21:48.456Z,31.80
2018-01-11T21:24:16.914Z,27.47
2018-01-11T21:26:45.488Z,30.40
2018-01-11T21:29:14.006Z,31.90
2018-01-11T21:31:42.423Z,30.90
2018-01-11T21:34:10.852Z,28.57
2018-01-11T21:36:39.472Z,27.93
2018-01-11T21:39:07.944Z,30.07
2018-01-11T21:41:36.675Z,32.60
2018-01-11T21:44:05.037Z,28.90
2018-01-11T21:46:33.435Z,28.70
2018-01-11T21:49:01.867Z,31.57
2018-01-11T21:51:30.228Z,29.13
2018-01-11T21:53:58.605Z,29.90
2018-01-11T21:56:26.995Z,31.80
2018-01-11T21:58:55.361Z,32.63
2018-01-11T22:01:23.698Z,26.20
2018-01-11T22:03:52.033Z,33.33
2018-01-11T22:06:20.377Z,31.50
2018-01-11T22:08:48.759Z,30.63
2018-01-11T22:11:17.125Z,32.33
2018-01-11T22:13:45.507Z,30.40
2018-01-11T22:16:13.825Z,28.23
2018-01-11T22:18:42.266Z,27.67
2018-01-11T22:21:10.673Z,25.83
2018-01-11T22:23:39.968Z,21.23
2018-01-11T22:26:08.340Z,21.13
2018-01-11T22:28:36.706Z,24.60
2018-01-11T22:31:06.188Z,26.40
2018-01-11T22:33:34.507Z,24.43
2018-01-11T22:36:02.876Z,26.17
2018-01-11T22:38:31.404Z,25.13
2018-01-11T22:40:59.746Z,24.60
2018-01-11T22:43:28.092Z,28.10
2018-01-11T22:45:56.436Z,15.13
2018-01-11T22:48:24.815Z,19.63
2018-01-11T22:50:53.141Z,23.20
2018-01-11T22:53:21.467Z,21.50
2018-01-11T22:55:49.795Z,23.00
2018-01-11T22:58:18.165Z,26.67
2018-01-11T23:00:46.486Z,25.93
2018-01-11T23:03:14.842Z,26.73
2018-01-11T23:05:43.180Z,28.90
2018-01-11T23:08:11.637Z,24.00
2018-01-11T23:10:39.996Z,22.47
2018-01-11T23:13:08.347Z,20.20
2018-01-11T23:15:36.666Z,25.60
2018-01-11T23:18:05.028Z,24.87
2018-01-11T23:20:33.368Z,25.47
2018-01-11T23:23:01.688Z,23.07
2018-01-11T23:25:30.048Z,24.57
2018-01-11T23:27:58.397Z,23.40
2018-01-11T23:30:26.926Z,21.27
2018-01-11T23:32:55.287Z,23.10
2018-01-11T23:35:23.668Z,20.97
2018-01-11T23:37:51.996Z,22.13
2018-01-11T23:40:20.349Z,20.90
2018-01-11T23:42:48.700Z,20.23
2018-01-11T23:45:17.043Z,24.63
2018-01-11T23:47:45.420Z,23.03
2018-01-11T23:50:13.751Z,23.43
2018-01-11T23:52:42.092Z,20.80
2018-01-11T23:55:10.432Z,19.33
2018-01-11T23:57:38.783Z,19.80
